createdAt,value
2019-02-25T00:00:26.269Z,4.42
2019-02-25T00:02:54.749Z,5.70
2019-02-25T00:18:42.782Z,3.42
2019-02-25T00:24:52.157Z,3.70
2019-02-25T00:27:20.577Z,3.40
2019-02-25T00:29:49.354Z,4.00
2019-02-25T00:32:17.801Z,4.60
2019-02-25T00:34:46.213Z,4.70
2019-02-25T00:37:14.652Z,4.07
2019-02-25T00:39:43.084Z,4.20
2019-02-25T00:42:11.512Z,4.22
2019-02-25T00:44:40.233Z,4.05
2019-02-25T00:47:08.652Z,3.90
2019-02-25T00:49:37.409Z,3.80
2019-02-25T00:52:05.820Z,4.17
2019-02-25T00:54:34.252Z,4.42
2019-02-25T00:57:02.668Z,3.80
2019-02-25T00:59:31.433Z,4.62
2019-02-25T01:01:59.854Z,4.65
2019-02-25T01:04:28.285Z,5.42
2019-02-25T01:06:57.076Z,5.28
2019-02-25T01:09:25.501Z,4.05
2019-02-25T01:11:53.919Z,3.90
2019-02-25T01:14:22.640Z,4.55
2019-02-25T01:16:51.052Z,5.17
2019-02-25T01:19:19.500Z,3.50
2019-02-25T01:21:48.279Z,5.20
2019-02-25T01:24:16.719Z,4.60
2019-02-25T01:26:45.124Z,5.08
2019-02-25T01:29:13.555Z,4.65
2019-02-25T01:31:42.135Z,4.37
2019-02-25T01:34:10.580Z,4.08
2019-02-25T01:36:39.000Z,4.12
2019-02-25T01:39:08.337Z,4.35
2019-02-25T01:41:36.753Z,3.50
2019-02-25T01:44:05.183Z,3.58
2019-02-25T01:46:33.592Z,3.45
2019-02-25T01:49:02.293Z,3.65
2019-02-25T01:51:30.704Z,3.58
2019-02-25T01:53:59.127Z,3.12
2019-02-25T01:56:27.548Z,3.30
2019-02-25T01:58:55.986Z,3.10
2019-02-25T02:01:24.392Z,3.60
2019-02-25T02:03:52.804Z,2.75
2019-02-25T02:06:21.229Z,2.87
2019-02-25T02:08:49.648Z,3.20
2019-02-25T02:11:18.080Z,3.30
2019-02-25T02:13:46.583Z,3.10
2019-02-25T02:16:14.984Z,3.58
2019-02-25T02:18:43.406Z,3.00
2019-02-25T02:21:11.827Z,3.35
2019-02-25T02:23:40.242Z,3.10
2019-02-25T02:26:08.733Z,3.55
2019-02-25T02:28:37.149Z,3.50
2019-02-25T02:31:05.639Z,3.42
2019-02-25T02:33:34.077Z,3.40
2019-02-25T02:36:02.499Z,2.80
2019-02-25T02:38:30.909Z,3.15
2019-02-25T02:40:59.341Z,3.30
2019-02-25T02:43:27.785Z,3.72
2019-02-25T02:46:11.493Z,3.45
2019-02-25T02:48:42.990Z,3.72
2019-02-25T02:51:11.419Z,3.52
2019-02-25T02:53:39.825Z,3.90
2019-02-25T02:56:08.250Z,3.75
2019-02-25T02:58:36.664Z,3.15
2019-02-25T03:01:05.453Z,3.00
2019-02-25T03:03:33.866Z,3.50
2019-02-25T03:06:02.288Z,3.42
2019-02-25T03:08:30.697Z,3.75
2019-02-25T03:10:59.119Z,2.72
2019-02-25T03:13:27.534Z,3.30
2019-02-25T03:15:55.953Z,3.65
2019-02-25T03:18:24.372Z,4.00
2019-02-25T03:20:52.801Z,3.15
2019-02-25T03:23:21.225Z,3.20
2019-02-25T03:25:49.961Z,3.30
2019-02-25T03:28:18.399Z,3.52
2019-02-25T03:30:46.881Z,3.73
2019-02-25T03:33:15.294Z,3.83
2019-02-25T03:35:43.709Z,4.03
2019-02-25T03:38:12.137Z,3.75
2019-02-25T03:40:40.550Z,4.45
2019-02-25T03:43:08.974Z,4.20
2019-02-25T03:45:37.390Z,3.67
2019-02-25T03:48:05.812Z,4.07
2019-02-25T03:50:34.237Z,4.30
2019-02-25T03:53:02.659Z,4.53
2019-02-25T03:55:31.086Z,4.35
2019-02-25T03:57:59.514Z,4.25
2019-02-25T04:00:27.928Z,4.12
2019-02-25T04:02:56.353Z,4.67
2019-02-25T04:05:24.778Z,4.05
2019-02-25T04:07:53.206Z,3.80
2019-02-25T04:10:21.617Z,4.25
2019-02-25T04:12:50.048Z,3.95
2019-02-25T04:15:21.133Z,3.90
2019-02-25T04:17:49.557Z,5.00
2019-02-25T04:20:38.841Z,5.35
2019-02-25T04:23:07.265Z,4.50
2019-02-25T04:25:35.699Z,4.60
2019-02-25T04:28:03.789Z,4.75
2019-02-25T04:30:32.201Z,4.15
2019-02-25T04:33:00.288Z,4.20
2019-02-25T04:35:28.705Z,4.53
2019-02-25T04:37:56.808Z,4.28
2019-02-25T04:40:25.221Z,5.83
2019-02-25T04:42:53.972Z,5.83
2019-02-25T04:45:22.758Z,4.87
2019-02-25T04:47:51.164Z,4.22
2019-02-25T04:50:19.240Z,5.10
2019-02-25T04:52:47.333Z,5.45
2019-02-25T04:55:15.488Z,5.10
2019-02-25T04:57:43.934Z,4.97
2019-02-25T05:00:15.430Z,4.70
2019-02-25T05:02:43.863Z,4.65
2019-02-25T05:05:12.360Z,4.30
2019-02-25T05:07:40.846Z,4.33
2019-02-25T05:10:35.817Z,4.28
2019-02-25T05:13:05.930Z,4.47
2019-02-25T05:15:35.822Z,4.58
2019-02-25T05:18:04.422Z,5.20
2019-02-25T05:20:32.846Z,5.10
2019-02-25T05:23:01.270Z,6.80
2019-02-25T05:25:29.697Z,5.10
2019-02-25T05:27:58.133Z,5.33
2019-02-25T05:30:26.557Z,6.12
2019-02-25T05:32:54.993Z,6.40
2019-02-25T05:35:23.422Z,6.75
2019-02-25T05:37:51.840Z,6.83
2019-02-25T05:40:20.910Z,5.55
2019-02-25T05:42:49.352Z,6.10
2019-02-25T05:45:18.244Z,5.70
2019-02-25T05:47:46.669Z,10.82
2019-02-25T05:50:17.247Z,10.60
2019-02-25T05:52:45.717Z,7.08
2019-02-25T05:55:15.162Z,6.33
2019-02-25T05:57:43.578Z,6.10
2019-02-25T06:00:19.385Z,5.83
2019-02-25T06:02:48.169Z,6.30
2019-02-25T06:05:16.644Z,6.30
2019-02-25T06:07:45.071Z,5.58
2019-02-25T06:10:14.265Z,5.42
2019-02-25T06:12:42.681Z,5.67
2019-02-25T06:15:30.458Z,7.00
2019-02-25T06:17:58.918Z,7.75
2019-02-25T06:20:27.317Z,7.40
2019-02-25T06:22:55.733Z,7.75
2019-02-25T06:25:24.170Z,7.72
2019-02-25T06:27:52.668Z,5.03
2019-02-25T06:30:40.453Z,5.35
2019-02-25T06:33:08.895Z,7.05
2019-02-25T06:35:37.309Z,5.58
2019-02-25T06:38:05.769Z,5.97
2019-02-25T06:40:34.193Z,5.78
2019-02-25T06:43:02.617Z,5.35
2019-02-25T06:45:34.989Z,6.12
2019-02-25T06:48:03.108Z,4.83
2019-02-25T06:50:31.200Z,5.10
2019-02-25T06:52:59.280Z,4.20
2019-02-25T06:55:27.705Z,5.92
2019-02-25T06:57:56.224Z,5.28
2019-02-25T07:00:24.720Z,6.28
2019-02-25T07:02:53.128Z,6.08
2019-02-25T07:05:28.896Z,6.97
2019-02-25T07:07:58.998Z,7.45
2019-02-25T07:10:35.081Z,10.35
2019-02-25T07:13:05.173Z,13.08
2019-02-25T07:15:51.544Z,12.03
2019-02-25T07:18:21.602Z,9.03
2019-02-25T07:20:54.485Z,8.70
2019-02-25T07:23:24.229Z,11.35
2019-02-25T07:25:56.457Z,11.15
2019-02-25T07:28:44.651Z,15.20
2019-02-25T07:31:26.564Z,8.15
2019-02-25T07:33:56.642Z,8.78
2019-02-25T07:36:38.638Z,8.48
2019-02-25T07:39:11.775Z,8.48
2019-02-25T07:41:44.379Z,7.80
2019-02-25T07:44:14.449Z,7.78
2019-02-25T07:46:47.233Z,9.00
2019-02-25T07:49:16.973Z,8.65
2019-02-25T07:51:46.713Z,7.67
2019-02-25T07:54:26.098Z,7.33
2019-02-25T07:56:56.165Z,8.15
2019-02-25T07:59:35.257Z,7.10
2019-02-25T08:02:11.306Z,7.40
2019-02-25T08:04:41.387Z,8.48
2019-02-25T08:07:28.406Z,7.92
2019-02-25T08:10:10.440Z,8.30
2019-02-25T08:12:49.341Z,8.83
2019-02-25T08:15:19.079Z,7.80
2019-02-25T08:17:58.051Z,7.33
2019-02-25T08:20:28.123Z,8.47
2019-02-25T08:23:10.182Z,7.90
2019-02-25T08:25:43.410Z,8.50
2019-02-25T08:28:16.501Z,11.70
2019-02-25T08:30:58.612Z,11.33
2019-02-25T08:33:28.669Z,6.90
2019-02-25T08:36:04.607Z,7.80
2019-02-25T08:38:42.800Z,8.80
2019-02-25T08:41:14.546Z,9.67
2019-02-25T08:43:47.088Z,9.07
2019-02-25T08:46:33.352Z,9.00
2019-02-25T08:49:06.081Z,7.50
2019-02-25T08:51:34.501Z,7.00
2019-02-25T08:54:02.915Z,6.20
2019-02-25T08:56:31.012Z,6.30
2019-02-25T08:58:59.710Z,6.77
2019-02-25T09:01:28.133Z,7.10
2019-02-25T09:03:56.216Z,7.03
2019-02-25T09:06:24.684Z,7.00
2019-02-25T09:08:53.141Z,6.03
2019-02-25T09:11:21.575Z,5.70
2019-02-25T09:13:49.652Z,5.20
2019-02-25T09:16:17.761Z,5.23
2019-02-25T09:18:46.164Z,5.03
2019-02-25T09:21:14.590Z,5.37
2019-02-25T09:23:43.298Z,5.50
2019-02-25T09:26:11.936Z,4.93
2019-02-25T09:28:40.508Z,5.33
2019-02-25T09:31:08.950Z,5.00
2019-02-25T09:33:37.369Z,5.17
2019-02-25T09:36:05.803Z,4.77
2019-02-25T09:38:34.220Z,5.00
2019-02-25T09:41:02.641Z,5.83
2019-02-25T09:43:31.070Z,4.97
2019-02-25T09:45:59.154Z,5.03
2019-02-25T09:48:27.269Z,4.20
2019-02-25T09:50:55.681Z,3.67
2019-02-25T09:53:24.066Z,4.20
2019-02-25T09:55:52.485Z,4.43
2019-02-25T09:58:21.222Z,3.90
2019-02-25T10:00:49.641Z,3.70
2019-02-25T10:03:18.101Z,3.97
2019-02-25T10:05:46.528Z,4.60
2019-02-25T10:08:14.973Z,3.57
2019-02-25T10:10:43.502Z,3.53
2019-02-25T10:13:11.927Z,3.40
2019-02-25T10:15:40.602Z,3.07
2019-02-25T10:18:09.071Z,3.20
2019-02-25T10:20:37.559Z,3.10
2019-02-25T10:23:05.656Z,2.83
2019-02-25T10:25:33.997Z,3.23
2019-02-25T10:28:02.689Z,4.50
2019-02-25T10:30:31.108Z,2.63
2019-02-25T10:33:00.819Z,2.80
2019-02-25T10:35:29.542Z,2.93
2019-02-25T10:37:57.970Z,2.90
2019-02-25T10:40:27.562Z,3.33
2019-02-25T10:42:56.437Z,3.30
2019-02-25T10:45:25.220Z,3.03
2019-02-25T10:47:58.216Z,3.07
2019-02-25T10:50:23.370Z,2.77
2019-02-25T10:52:51.481Z,2.87
2019-02-25T10:55:21.136Z,3.43
2019-02-25T10:57:49.223Z,2.93
2019-02-25T11:00:19.677Z,2.80
2019-02-25T11:02:49.471Z,3.23
2019-02-25T11:05:19.015Z,2.73
2019-02-25T11:07:48.453Z,2.93
2019-02-25T11:10:22.374Z,3.07
2019-02-25T11:12:51.228Z,2.73
2019-02-25T11:15:19.313Z,3.00
2019-02-25T11:17:48.003Z,2.97
2019-02-25T11:20:17.219Z,2.90
2019-02-25T11:22:46.094Z,3.20
2019-02-25T11:25:15.368Z,2.80
2019-02-25T11:27:43.789Z,3.03
2019-02-25T11:30:14.298Z,3.03
2019-02-25T11:32:43.137Z,3.53
2019-02-25T11:35:13.074Z,2.77
2019-02-25T11:37:41.604Z,2.80
2019-02-25T11:40:35.920Z,3.00
2019-02-25T11:43:04.118Z,3.00
2019-02-25T11:45:32.680Z,2.67
2019-02-25T11:48:01.093Z,2.90
2019-02-25T11:50:29.521Z,2.60
2019-02-25T11:52:57.933Z,2.80
2019-02-25T11:55:26.368Z,2.57
2019-02-25T11:57:54.777Z,2.83
2019-02-25T12:00:24.638Z,2.57
2019-02-25T12:02:53.049Z,2.90
2019-02-25T12:05:21.540Z,2.73
2019-02-25T12:07:49.962Z,2.80
2019-02-25T12:10:18.832Z,3.07
2019-02-25T12:12:47.268Z,3.03
2019-02-25T12:15:22.809Z,2.60
2019-02-25T12:17:51.506Z,2.50
2019-02-25T12:20:20.156Z,2.43
2019-02-25T12:22:48.717Z,2.63
2019-02-25T12:25:21.326Z,3.27
2019-02-25T12:27:49.745Z,3.70
2019-02-25T12:30:20.689Z,2.73
2019-02-25T12:32:49.106Z,2.30
2019-02-25T12:35:17.536Z,3.13
2019-02-25T12:37:45.955Z,2.93
2019-02-25T12:40:16.634Z,2.83
2019-02-25T12:42:45.045Z,2.10
2019-02-25T12:45:15.023Z,2.60
2019-02-25T12:47:43.436Z,2.40
2019-02-25T12:50:19.050Z,2.97
2019-02-25T12:52:47.214Z,2.73
2019-02-25T12:55:19.446Z,2.87
2019-02-25T12:57:47.861Z,2.57
2019-02-25T13:00:19.386Z,2.13
2019-02-25T13:02:47.940Z,2.83
2019-02-25T13:05:17.606Z,2.53
2019-02-25T13:07:46.025Z,2.80
2019-02-25T13:10:15.885Z,2.83
2019-02-25T13:12:44.649Z,2.40
2019-02-25T13:15:15.406Z,2.40
2019-02-25T13:17:43.828Z,2.57
2019-02-25T13:20:12.992Z,2.40
2019-02-25T13:22:41.404Z,2.30
2019-02-25T13:25:13.062Z,2.17
2019-02-25T13:27:40.901Z,2.17
2019-02-25T13:30:15.442Z,2.17
2019-02-25T13:32:43.929Z,2.07
2019-02-25T13:35:13.686Z,1.80
2019-02-25T13:37:42.369Z,2.03
2019-02-25T13:40:12.004Z,2.13
2019-02-25T13:42:40.492Z,2.40
2019-02-25T13:45:20.441Z,2.20
2019-02-25T13:47:48.929Z,2.03
2019-02-25T13:50:18.296Z,2.47
2019-02-25T13:52:48.145Z,2.07
2019-02-25T13:55:22.007Z,3.20
2019-02-25T13:57:50.511Z,1.97
2019-02-25T14:00:23.416Z,2.27
2019-02-25T14:02:51.954Z,1.57
2019-02-25T14:05:20.805Z,1.97
2019-02-25T14:07:49.307Z,2.27
2019-02-25T14:10:18.853Z,2.13
2019-02-25T14:12:47.349Z,2.47
2019-02-25T14:15:21.654Z,2.00
2019-02-25T14:17:50.069Z,1.87
2019-02-25T14:20:22.822Z,2.43
2019-02-25T14:22:51.313Z,2.00
2019-02-25T14:25:27.751Z,2.30
2019-02-25T14:27:56.709Z,2.03
2019-02-25T14:30:26.585Z,1.73
2019-02-25T14:32:55.692Z,1.47
2019-02-25T14:35:28.468Z,1.93
2019-02-25T14:38:04.258Z,1.80
2019-02-25T14:40:32.046Z,2.07
2019-02-25T14:42:59.966Z,1.70
2019-02-25T14:45:31.490Z,1.83
2019-02-25T14:47:59.866Z,2.13
2019-02-25T14:50:29.665Z,1.60
2019-02-25T14:53:00.184Z,1.40
2019-02-25T14:55:28.336Z,1.90
2019-02-25T14:57:59.974Z,2.80
2019-02-25T15:00:28.935Z,2.10
2019-02-25T15:02:58.157Z,2.70
2019-02-25T15:05:26.794Z,2.33
2019-02-25T15:07:55.303Z,2.23
2019-02-25T15:10:26.440Z,1.97
2019-02-25T15:12:56.942Z,2.20
2019-02-25T15:15:24.820Z,2.03
2019-02-25T15:17:53.390Z,1.77
2019-02-25T15:20:23.367Z,1.70
2019-02-25T15:22:52.628Z,2.23
2019-02-25T15:25:21.821Z,1.77
2019-02-25T15:27:50.480Z,2.20
2019-02-25T15:30:25.582Z,2.03
2019-02-25T15:32:57.115Z,1.37
2019-02-25T15:35:28.789Z,1.97
2019-02-25T15:37:56.022Z,1.90
2019-02-25T15:40:26.851Z,2.20
2019-02-25T15:43:17.709Z,2.30
2019-02-25T15:45:45.429Z,2.33
2019-02-25T15:48:19.052Z,1.57
2019-02-25T15:50:50.701Z,1.80
2019-02-25T15:53:19.777Z,1.90
2019-02-25T15:55:48.404Z,2.53
2019-02-25T15:58:17.289Z,2.23
2019-02-25T16:00:46.640Z,2.03
2019-02-25T16:03:16.257Z,1.73
2019-02-25T16:05:45.381Z,1.93
2019-02-25T16:08:17.109Z,1.63
2019-02-25T16:10:44.858Z,1.97
2019-02-25T16:13:14.187Z,1.63
2019-02-25T16:15:42.943Z,2.25
2019-02-25T16:18:13.645Z,4.33
2019-02-25T16:20:45.907Z,1.80
2019-02-25T16:23:13.044Z,2.70
2019-02-25T16:25:41.886Z,3.62
2019-02-25T16:28:10.830Z,7.30
2019-02-25T16:30:42.188Z,4.43
2019-02-25T16:33:12.621Z,5.20
2019-02-25T16:35:41.665Z,2.40
2019-02-25T16:38:11.133Z,6.00
2019-02-25T16:40:40.136Z,5.40
2019-02-25T16:43:12.109Z,4.70
2019-02-25T16:45:40.178Z,5.43
2019-02-25T16:48:09.129Z,6.77
2019-02-25T16:50:39.764Z,5.47
2019-02-25T16:53:08.578Z,11.23
2019-02-25T16:55:39.939Z,7.27
2019-02-25T16:58:12.456Z,6.50
2019-02-25T17:00:39.437Z,12.30
2019-02-25T17:03:10.611Z,8.63
2019-02-25T17:05:40.276Z,11.70
2019-02-25T17:08:12.595Z,4.58
2019-02-25T17:10:41.172Z,4.37
2019-02-25T17:13:10.360Z,4.10
2019-02-25T17:15:39.814Z,3.20
2019-02-25T17:18:08.786Z,2.10
2019-02-25T17:20:37.279Z,2.37
2019-02-25T17:23:09.428Z,2.87
2019-02-25T17:25:37.993Z,2.33
2019-02-25T17:28:07.811Z,2.07
2019-02-25T17:30:37.960Z,2.30
2019-02-25T17:33:27.877Z,1.97
2019-02-25T17:35:56.395Z,2.57
2019-02-25T17:38:25.166Z,1.57
2019-02-25T17:40:55.172Z,1.80
2019-02-25T17:43:23.877Z,2.60
2019-02-25T17:46:12.033Z,2.40
2019-02-25T17:48:41.794Z,2.03
2019-02-25T17:51:10.215Z,3.93
2019-02-25T17:53:38.712Z,6.63
2019-02-25T17:56:07.205Z,6.80
2019-02-25T17:58:36.395Z,9.40
2019-02-25T18:01:06.506Z,11.23
2019-02-25T18:03:34.998Z,10.33
2019-02-25T18:06:05.229Z,8.70
2019-02-25T18:08:35.442Z,8.70
2019-02-25T18:11:04.851Z,9.77
2019-02-25T18:13:35.149Z,7.93
2019-02-25T18:16:03.690Z,5.20
2019-02-25T18:18:32.193Z,5.37
2019-02-25T18:21:00.690Z,7.73
2019-02-25T18:23:29.393Z,7.77
2019-02-25T18:25:58.824Z,7.37
2019-02-25T18:28:27.393Z,6.80
2019-02-25T18:30:59.655Z,5.53
2019-02-25T18:33:27.408Z,5.17
2019-02-25T18:35:58.106Z,4.30
2019-02-25T18:38:27.817Z,2.87
2019-02-25T18:40:58.668Z,3.73
2019-02-25T18:43:28.356Z,2.60
2019-02-25T18:45:58.917Z,2.50
2019-02-25T18:48:28.535Z,2.13
2019-02-25T18:50:58.976Z,2.43
2019-02-25T18:53:27.142Z,2.37
2019-02-25T18:55:56.735Z,2.10
2019-02-25T18:58:25.430Z,2.93
2019-02-25T19:00:54.185Z,5.80
2019-02-25T19:03:22.656Z,3.60
2019-02-25T19:05:53.272Z,3.23
2019-02-25T19:08:22.847Z,3.87
2019-02-25T19:10:53.187Z,3.30
2019-02-25T19:13:23.312Z,3.27
2019-02-25T19:15:53.146Z,3.00
2019-02-25T19:18:22.577Z,4.53
2019-02-25T19:20:51.061Z,4.70
2019-02-25T19:23:19.832Z,5.83
2019-02-25T19:25:48.324Z,3.90
2019-02-25T19:28:19.110Z,2.73
2019-02-25T19:30:47.168Z,2.70
2019-02-25T19:33:19.484Z,3.73
2019-02-25T19:35:45.805Z,7.00
2019-02-25T19:38:15.367Z,6.47
2019-02-25T19:40:46.570Z,6.90
2019-02-25T19:43:14.729Z,6.63
2019-02-25T19:45:44.980Z,7.63
2019-02-25T19:48:13.489Z,6.93
2019-02-25T19:50:50.655Z,9.27
2019-02-25T19:53:12.655Z,7.80
2019-02-25T19:55:43.994Z,15.77
2019-02-25T19:58:12.749Z,26.97
2019-02-25T20:00:41.160Z,17.13
2019-02-25T20:03:09.905Z,11.27
2019-02-25T20:05:41.093Z,18.33
2019-02-25T20:08:08.473Z,16.80
2019-02-25T20:10:37.048Z,9.40
2019-02-25T20:13:08.485Z,8.37
2019-02-25T20:15:39.576Z,8.13
2019-02-25T20:18:07.211Z,9.40
2019-02-25T20:20:38.399Z,9.20
2019-02-25T20:23:08.420Z,8.67
2019-02-25T20:25:42.462Z,10.23
2019-02-25T20:28:09.765Z,10.17
2019-02-25T20:30:38.256Z,16.17
2019-02-25T20:33:08.617Z,15.10
2019-02-25T20:35:37.236Z,24.63
2019-02-25T20:38:05.685Z,15.77
2019-02-25T20:40:34.076Z,15.23
2019-02-25T20:43:03.089Z,18.37
2019-02-25T20:45:35.721Z,16.60
2019-02-25T20:48:04.765Z,10.37
2019-02-25T20:50:33.193Z,11.13
2019-02-25T20:53:05.538Z,6.70
2019-02-25T20:55:33.870Z,10.07
2019-02-25T20:58:01.964Z,10.83
2019-02-25T21:00:30.381Z,10.67
2019-02-25T21:02:58.813Z,10.50
2019-02-25T21:05:27.493Z,11.33
2019-02-25T21:07:57.952Z,12.17
2019-02-25T21:10:29.290Z,10.63
2019-02-25T21:12:57.196Z,10.33
2019-02-25T21:15:26.497Z,10.37
2019-02-25T21:17:57.754Z,10.97
2019-02-25T21:20:28.355Z,11.07
2019-02-25T21:22:57.928Z,12.60
2019-02-25T21:25:26.960Z,10.93
2019-02-25T21:27:59.213Z,10.53
2019-02-25T21:30:26.207Z,11.03
2019-02-25T21:32:57.218Z,7.00
2019-02-25T21:35:27.646Z,6.97
2019-02-25T21:37:55.225Z,7.53
2019-02-25T21:40:26.883Z,8.07
2019-02-25T21:42:56.637Z,7.83
2019-02-25T21:45:27.103Z,8.27
2019-02-25T21:47:56.637Z,7.47
2019-02-25T21:50:28.423Z,6.07
2019-02-25T21:52:55.244Z,7.13
2019-02-25T21:55:26.182Z,5.90
2019-02-25T21:57:55.451Z,5.40
2019-02-25T22:00:32.015Z,5.17
2019-02-25T22:02:58.152Z,7.17
2019-02-25T22:05:26.577Z,5.33
2019-02-25T22:07:57.305Z,7.73
2019-02-25T22:10:25.149Z,8.27
2019-02-25T22:12:53.568Z,9.93
2019-02-25T22:15:22.339Z,10.53
2019-02-25T22:17:53.167Z,8.03
2019-02-25T22:20:22.152Z,8.73
2019-02-25T22:22:54.468Z,8.67
2019-02-25T22:25:24.547Z,11.13
2019-02-25T22:27:52.945Z,9.77
2019-02-25T22:30:21.368Z,10.43
2019-02-25T22:32:49.793Z,7.57
2019-02-25T22:35:18.520Z,7.97
2019-02-25T22:37:49.468Z,7.20
2019-02-25T22:40:17.642Z,7.67
2019-02-25T22:42:48.050Z,7.90
2019-02-25T22:45:18.810Z,7.17
2019-02-25T22:47:47.501Z,5.27
2019-02-25T22:50:15.937Z,5.43
2019-02-25T22:52:44.350Z,5.03
2019-02-25T22:55:15.392Z,5.60
2019-02-25T22:57:46.097Z,5.03
2019-02-25T23:00:34.844Z,6.37
2019-02-25T23:03:03.329Z,5.70
2019-02-25T23:05:32.021Z,6.43
2019-02-25T23:08:00.438Z,7.90
2019-02-25T23:10:28.862Z,6.33
2019-02-25T23:12:57.284Z,6.37
2019-02-25T23:15:29.779Z,6.03
2019-02-25T23:18:04.621Z,5.90
2019-02-25T23:20:27.348Z,5.70
2019-02-25T23:22:57.444Z,5.63
2019-02-25T23:25:26.289Z,6.03
2019-02-25T23:27:55.719Z,7.07
2019-02-25T23:30:24.869Z,7.87
2019-02-25T23:32:54.452Z,7.23
2019-02-25T23:35:25.304Z,7.33
2019-02-25T23:37:56.274Z,6.73
2019-02-25T23:40:24.483Z,5.83
2019-02-25T23:42:52.905Z,7.33
2019-02-25T23:45:23.146Z,6.37
2019-02-25T23:47:55.311Z,6.37
2019-02-25T23:50:21.936Z,9.80
2019-02-25T23:52:50.358Z,9.93
2019-02-25T23:55:21.489Z,9.20
2019-02-25T23:57:49.253Z,10.30
